Time;durP1;ratioP1;P1;durP2;ratioP2;P2;SDS_P1;SDS_P2;PMS_P1;PMS_P2;Temp;Humidity;BMP_temperature;BMP_pressure;BME280_temperature;BME280_humidity;BME280_pressure;Samples;Min_cycle;Max_cycle;Signal;HPM_P1;HPM_P2
2023/01/18 00:02:12;;;;;;;;;40.33;30.33;;;;;1.48;96.57;95843.66;4975266;28;102265;-72
2023/01/18 00:04:39;;;;;;;;;40.00;33.33;;;;;1.46;97.20;95837.72;4981218;27;104168;-72
2023/01/18 00:07:06;;;;;;;;;40.00;32.33;;;;;1.45;97.38;95830.75;4978054;28;102322;-72
2023/01/18 00:09:33;;;;;;;;;39.00;31.33;;;;;1.43;97.32;95816.88;4969352;27;102455;-72
2023/01/18 00:12:00;;;;;;;;;26.67;22.00;;;;;1.47;97.87;95812.75;4966298;28;102322;-72
2023/01/18 00:14:27;;;;;;;;;32.33;24.33;;;;;1.48;97.92;95806.41;4971334;28;104063;-72
2023/01/18 00:16:54;;;;;;;;;32.67;28.00;;;;;1.48;97.87;95809.06;4975518;28;102120;-72
2023/01/18 00:19:21;;;;;;;;;27.33;22.33;;;;;1.53;97.89;95811.88;4974267;28;102272;-72
2023/01/18 00:21:53;;;;;;;;;45.33;38.67;;;;;1.50;97.30;95812.31;4962582;28;102404;-72
2023/01/18 00:24:21;;;;;;;;;41.67;32.33;;;;;1.47;97.52;95812.75;4963378;28;104797;-72
2023/01/18 00:26:49;;;;;;;;;32.33;27.00;;;;;1.50;97.97;95822.13;4965750;28;102241;-73
2023/01/18 00:29:16;;;;;;;;;28.67;25.33;;;;;1.52;98.34;95810.25;4955039;28;101810;-73
2023/01/18 00:31:43;;;;;;;;;29.00;22.33;;;;;1.55;97.79;95812.50;4971506;28;102326;-73
2023/01/18 00:34:10;;;;;;;;;24.75;20.00;;;;;1.62;98.49;95820.47;4964017;28;108681;-73
2023/01/18 00:36:39;;;;;;;;;22.50;17.25;;;;;1.63;97.83;95811.41;4964432;28;102891;-72
2023/01/18 00:39:07;;;;;;;;;17.00;10.50;;;;;1.57;97.82;95797.13;4966997;28;102150;-72
2023/01/18 00:43:37;;;;;;;;;17.25;14.25;;;;;1.67;97.63;95810.78;4965935;28;102224;-72
2023/01/18 00:44:21;;;;;;;;;17.25;15.00;;;;;1.63;97.60;95801.56;4967183;28;108698;-72
2023/01/18 00:46:48;;;;;;;;;21.00;18.25;;;;;1.64;98.80;95802.41;4965478;28;102421;-73
2023/01/18 00:49:15;;;;;;;;;25.00;22.00;;;;;1.60;98.95;95801.19;4965630;28;102171;-72
2023/01/18 00:51:42;;;;;;;;;27.00;23.33;;;;;1.56;99.37;95792.81;4968469;28;102207;-72
2023/01/18 00:54:09;;;;;;;;;30.00;25.33;;;;;1.55;99.20;95799.19;4959614;28;103991;-72
2023/01/18 00:56:36;;;;;;;;;33.00;23.33;;;;;1.56;99.04;95803.47;4623892;28;10001248;-72
2023/01/18 00:59:03;;;;;;;;;25.00;22.00;;;;;1.57;99.58;95802.47;4976127;28;102379;-72
2023/01/18 01:01:30;;;;;;;;;36.00;25.67;;;;;1.54;99.55;95794.88;4964958;28;102286;-72
2023/01/18 01:06:43;;;;;;;;;45.33;37.00;;;;;1.47;99.88;95791.44;4965761;28;109378;-72
2023/01/18 01:09:21;;;;;;;;;39.33;29.67;;;;;1.48;100.00;95778.94;4952514;28;102560;-72
2023/01/18 01:28:27;;;;;;;;;25.33;19.33;;;;;1.36;99.99;95778.78;4963851;28;109289;-72
2023/01/18 01:31:02;;;;;;;;;29.67;22.67;;;;;1.32;98.89;95785.56;4972632;28;102569;-73
2023/01/18 01:33:30;;;;;;;;;22.00;16.00;;;;;1.34;99.26;95783.53;4965904;28;102302;-72
2023/01/18 01:35:59;;;;;;;;;27.67;25.33;;;;;1.27;99.75;95780.88;4971115;28;102256;-72
2023/01/18 01:38:27;;;;;;;;;21.33;18.00;;;;;1.25;99.86;95779.47;4980797;28;104043;-73
2023/01/18 01:40:55;;;;;;;;;21.67;20.33;;;;;1.23;100.00;95773.53;4977429;28;102832;-73
2023/01/18 01:43:48;;;;;;;;;29.67;24.67;;;;;1.15;100.00;95766.63;4972369;28;102138;-72
2023/01/18 01:46:32;;;;;;;;;22.67;22.00;;;;;1.18;100.00;95770.69;4969376;28;102031;-73
2023/01/18 01:49:06;;;;;;;;;19.50;14.50;;;;;1.20;100.00;95763.31;4965280;28;103981;-72
2023/01/18 01:51:38;;;;;;;;;16.25;14.50;;;;;1.22;100.00;95761.25;4972238;27;102122;-73
2023/01/18 01:54:09;;;;;;;;;25.00;23.00;;;;;1.15;100.00;95755.16;4964187;28;102018;-72
2023/01/18 01:56:38;;;;;;;;;27.00;24.00;;;;;1.11;100.00;95751.28;4970895;28;102260;-72
2023/01/18 01:59:07;;;;;;;;;22.67;20.00;;;;;1.14;100.00;95746.34;4959904;28;103944;-72
2023/01/18 02:01:35;;;;;;;;;29.00;24.00;;;;;1.13;100.00;95739.41;4966737;28;102161;-72
2023/01/18 02:04:03;;;;;;;;;23.00;18.00;;;;;1.11;100.00;95738.81;4953833;28;102165;-72
2023/01/18 02:06:38;;;;;;;;;38.00;31.00;;;;;1.07;100.00;95742.09;4950244;28;102112;-72
2023/01/18 02:09:21;;;;;;;;;27.67;20.00;;;;;1.13;100.00;95747.38;4954037;28;104021;-72
2023/01/18 02:12:07;;;;;;;;;16.67;12.67;;;;;1.12;100.00;95750.28;4954980;28;102479;-72
2023/01/18 02:14:55;;;;;;;;;16.67;14.67;;;;;1.19;100.00;95756.38;4970363;28;102090;-73
2023/01/18 02:17:59;;;;;;;;;17.33;16.33;;;;;1.17;100.00;95742.47;4957172;28;102173;-72
2023/01/18 02:20:58;;;;;;;;;17.33;12.67;;;;;1.24;100.00;95740.59;4949368;28;107561;-73
2023/01/18 02:23:49;;;;;;;;;18.67;13.33;;;;;1.23;100.00;95736.28;4959405;28;102453;-73
2023/01/18 02:27:04;;;;;;;;;17.50;16.00;;;;;1.24;100.00;95735.25;4976934;28;102493;-72
2023/01/18 02:30:02;;;;;;;;;14.00;12.75;;;;;1.19;99.98;95727.09;4975207;28;102088;-72
2023/01/18 02:32:45;;;;;;;;;21.67;19.33;;;;;1.22;100.00;95724.00;4952788;28;108161;-72
2023/01/18 02:35:56;;;;;;;;;18.25;17.00;;;;;1.22;100.00;95730.13;4961254;28;102126;-72
2023/01/18 02:38:31;;;;;;;;;15.25;13.00;;;;;1.27;100.00;95729.50;4956838;28;102147;-72
2023/01/18 02:46:29;;;;;;;;;21.50;15.25;;;;;1.28;100.00;95723.16;4971908;28;102144;-72
2023/01/18 02:47:15;;;;;;;;;24.67;18.67;;;;;1.16;100.00;95708.91;4964126;28;102344;-72
2023/01/18 02:49:42;;;;;;;;;19.25;17.00;;;;;1.17;100.00;95715.88;4969670;28;102020;-72
2023/01/18 02:52:46;;;;;;;;;16.75;11.00;;;;;1.23;100.00;95721.13;4969052;28;102054;-72
2023/01/18 02:55:38;;;;;;;;;13.50;12.25;;;;;1.18;100.00;95717.47;4966491;28;108761;-72
2023/01/18 02:58:26;;;;;;;;;13.00;10.67;;;;;1.24;100.00;95735.25;4959322;28;110548;-72
2023/01/18 03:01:04;;;;;;;;;13.33;12.67;;;;;1.19;100.00;95733.25;4954549;28;102364;-72
2023/01/18 03:03:31;;;;;;;;;13.25;13.00;;;;;1.15;100.00;95736.53;4958345;28;101901;-72
2023/01/18 03:06:01;;;;;;;;;19.33;13.33;;;;;1.15;100.00;95734.69;4958344;28;104105;-72
2023/01/18 03:08:36;;;;;;;;;17.25;16.50;;;;;1.13;100.00;95742.06;4960223;28;102247;-73
2023/01/18 03:11:10;;;;;;;;;17.00;12.25;;;;;1.18;100.00;95741.41;4965993;28;102335;-73
2023/01/18 03:13:57;;;;;;;;;15.25;11.25;;;;;1.22;100.00;95747.94;4971501;28;102109;-72
2023/01/18 03:16:38;;;;;;;;;12.75;12.75;;;;;1.23;100.00;95736.28;4954582;28;108463;-73
2023/01/18 03:22:01;;;;;;;;;13.50;10.50;;;;;1.22;100.00;95745.28;4959712;28;102161;-73
2023/01/18 03:24:30;;;;;;;;;9.50;8.75;;;;;1.23;100.00;95741.59;4966329;28;102472;-73
2023/01/18 03:35:26;;;;;;;;;8.50;6.00;;;;;1.30;99.74;95734.41;4954483;28;102271;-73
2023/01/18 03:37:56;;;;;;;;;5.00;2.00;;;;;1.34;99.40;95730.28;4955258;28;103611;-72
2023/01/18 03:40:27;;;;;;;;;4.25;4.25;;;;;1.32;99.48;95719.84;4964516;28;102411;-72
2023/01/18 03:43:01;;;;;;;;;5.50;4.25;;;;;1.19;98.64;95697.81;4961324;28;102335;-72
2023/01/18 03:46:03;;;;;;;;;11.50;8.00;;;;;1.10;98.74;95701.75;4963697;28;102628;-72
2023/01/18 03:48:32;;;;;;;;;11.50;10.00;;;;;1.02;100.00;95696.69;4961096;28;108755;-72
2023/01/18 03:51:19;;;;;;;;;14.00;12.50;;;;;0.95;99.96;95677.28;4957492;28;102275;-73
2023/01/18 03:54:14;;;;;;;;;15.50;12.50;;;;;0.95;100.00;95664.78;4969065;28;103430;-73
2023/01/18 03:56:49;;;;;;;;;9.00;5.00;;;;;0.96;100.00;95654.97;4965848;28;102452;-73
2023/01/18 03:59:17;;;;;;;;;8.00;7.75;;;;;0.89;100.00;95653.19;4964175;28;108680;-73
2023/01/18 04:01:46;;;;;;;;;8.00;6.00;;;;;0.86;99.93;95629.66;4974317;28;101892;-73
2023/01/18 04:04:14;;;;;;;;;6.25;6.25;;;;;0.63;100.00;95578.84;4962626;28;102312;-73
2023/01/18 04:06:41;;;;;;;;;11.00;9.00;;;;;0.86;99.74;95610.22;4961147;28;102169;-73
2023/01/18 04:09:08;;;;;;;;;6.75;5.25;;;;;0.75;100.00;95601.09;4969795;28;104057;-73
2023/01/18 04:11:35;;;;;;;;;5.25;5.25;;;;;0.82;100.00;95604.53;4967393;28;102031;-73
2023/01/18 04:14:02;;;;;;;;;8.00;5.00;;;;;0.83;100.00;95621.28;4963674;27;101985;-73
2023/01/18 04:16:29;;;;;;;;;5.25;5.00;;;;;0.81;100.00;95652.63;4970175;28;102409;-73
2023/01/18 04:18:56;;;;;;;;;9.00;6.25;;;;;0.81;99.63;95658.72;4969019;28;104033;-73
2023/01/18 04:21:23;;;;;;;;;8.75;5.00;;;;;0.82;99.97;95663.03;4970606;27;102023;-73
2023/01/18 04:23:49;;;;;;;;;6.00;4.75;;;;;0.83;100.00;95655.88;4964190;28;102309;-73
2023/01/18 04:26:18;;;;;;;;;6.00;6.00;;;;;0.76;100.00;95653.25;4965820;28;102609;-73
2023/01/18 04:28:45;;;;;;;;;15.75;12.00;;;;;0.70;100.00;95639.97;4966622;28;108613;-73
2023/01/18 04:31:11;;;;;;;;;10.00;8.75;;;;;0.76;100.00;95652.44;4974776;28;102237;-73
2023/01/18 04:33:38;;;;;;;;;10.00;4.25;;;;;0.82;100.00;95660.38;4968453;28;101792;-73
2023/01/18 04:36:06;;;;;;;;;8.25;7.00;;;;;0.79;100.00;95639.53;4972068;28;102083;-72
2023/01/18 04:38:33;;;;;;;;;7.75;6.75;;;;;0.79;100.00;95639.53;4967792;28;104256;-73
2023/01/18 04:41:04;;;;;;;;;5.00;5.00;;;;;0.78;100.00;95642.38;4968464;27;102442;-73
2023/01/18 04:43:31;;;;;;;;;5.00;4.50;;;;;0.82;100.00;95660.38;4968398;28;101842;-72
2023/01/18 04:45:58;;;;;;;;;5.00;3.75;;;;;0.85;100.00;95649.31;4964645;27;104690;-72
2023/01/18 04:48:26;;;;;;;;;3.50;3.00;;;;;0.89;100.00;95641.72;4971416;28;104004;-73
2023/01/18 04:50:52;;;;;;;;;4.00;4.00;;;;;0.91;100.00;95647.63;4962396;28;102307;-72
2023/01/18 04:53:20;;;;;;;;;8.00;7.75;;;;;0.77;100.00;95616.81;4971688;28;102687;-72
2023/01/18 04:55:47;;;;;;;;;5.50;5.00;;;;;0.84;100.00;95606.97;4966695;28;102048;-72
2023/01/18 04:58:14;;;;;;;;;4.25;4.00;;;;;0.89;100.00;95617.78;4960956;28;108460;-73
2023/01/18 05:00:42;;;;;;;;;4.50;3.00;;;;;0.95;100.00;95640.03;4963710;28;102239;-73
2023/01/18 05:03:10;;;;;;;;;11.00;9.50;;;;;0.82;100.00;95638.28;4965460;28;102313;-73
2023/01/18 05:05:38;;;;;;;;;9.75;8.00;;;;;0.80;100.00;95635.84;4962392;28;102396;-73
2023/01/18 05:08:05;;;;;;;;;9.50;6.00;;;;;0.80;100.00;95632.38;4957530;28;104012;-73
2023/01/18 05:10:32;;;;;;;;;12.00;8.00;;;;;0.79;100.00;95620.09;4968187;28;102276;-73
2023/01/18 05:12:59;;;;;;;;;5.75;5.75;;;;;0.80;100.00;95611.91;4969268;27;102041;-73
2023/01/18 05:15:27;;;;;;;;;3.25;3.25;;;;;0.87;100.00;95617.19;4970014;28;102914;-73
2023/01/18 05:17:54;;;;;;;;;6.75;5.25;;;;;0.82;100.00;95623.13;4967238;28;103986;-72
2023/01/18 05:20:21;;;;;;;;;4.50;3.00;;;;;0.92;100.00;95632.50;4967512;28;102608;-73
2023/01/18 05:22:48;;;;;;;;;4.25;2.50;;;;;0.96;100.00;95633.69;4962549;28;102058;-72
2023/01/18 05:25:15;;;;;;;;;2.25;2.00;;;;;1.00;100.00;95640.22;4967370;28;102684;-72
2023/01/18 05:27:42;;;;;;;;;4.50;2.50;;;;;0.95;100.00;95658.66;4965042;28;104229;-72
2023/01/18 05:30:10;;;;;;;;;4.00;4.00;;;;;0.95;100.00;95662.13;4968569;28;102445;-72
2023/01/18 05:32:37;;;;;;;;;4.50;4.50;;;;;0.96;100.00;95671.75;4965512;28;102408;-73
2023/01/18 05:35:05;;;;;;;;;2.00;2.00;;;;;0.99;100.00;95679.31;4970122;28;102279;-72
2023/01/18 05:37:32;;;;;;;;;2.00;1.00;;;;;1.04;100.00;95684.81;4963397;28;104472;-72
2023/01/18 05:39:59;;;;;;;;;1.50;1.00;;;;;1.03;100.00;95680.53;4968287;28;102428;-73
2023/01/18 05:42:26;;;;;;;;;2.00;1.75;;;;;1.07;100.00;95683.56;4968949;28;102290;-73
2023/01/18 05:44:53;;;;;;;;;2.00;1.50;;;;;1.12;100.00;95689.91;4964116;28;102588;-73
2023/01/18 05:47:20;;;;;;;;;2.00;1.00;;;;;1.04;100.00;95679.47;4965573;28;104017;-73
2023/01/18 05:49:48;;;;;;;;;5.00;2.00;;;;;1.09;100.00;95682.31;4970469;28;102383;-73
2023/01/18 05:52:17;;;;;;;;;1.00;1.00;;;;;1.15;100.00;95685.97;4961630;28;102196;-74
2023/01/18 05:54:44;;;;;;;;;1.00;1.00;;;;;1.21;100.00;95685.13;4959681;28;102224;-73
2023/01/18 05:57:13;;;;;;;;;2.00;1.00;;;;;1.11;100.00;95663.50;4978684;28;103635;-73
2023/01/18 05:59:39;;;;;;;;;2.00;1.00;;;;;1.22;100.00;95676.09;4975984;28;102024;-73
2023/01/18 06:02:06;;;;;;;;;3.50;1.00;;;;;1.23;100.00;95672.41;4967868;28;102377;-73
2023/01/18 06:04:33;;;;;;;;;2.75;2.00;;;;;1.24;99.88;95668.72;4960781;28;102935;-73
2023/01/18 06:07:01;;;;;;;;;5.00;3.00;;;;;1.21;99.72;95662.00;4977529;27;104119;-73
2023/01/18 06:09:28;;;;;;;;;5.75;4.75;;;;;1.17;100.00;95657.31;4967282;28;102440;-74
2023/01/18 06:11:56;;;;;;;;;6.25;6.25;;;;;1.16;100.00;95656.50;4968211;28;102366;-74
2023/01/18 06:14:23;;;;;;;;;9.00;5.50;;;;;1.14;100.00;95655.06;4963985;28;102820;-74
2023/01/18 06:16:50;;;;;;;;;6.00;5.00;;;;;1.11;100.00;95650.19;4956635;28;104042;-72
2023/01/18 06:19:17;;;;;;;;;5.00;2.50;;;;;1.16;100.00;95659.16;4970598;28;102120;-73
2023/01/18 06:21:44;;;;;;;;;1.00;1.00;;;;;1.21;100.00;95670.00;4969047;28;101991;-74
2023/01/18 06:24:12;;;;;;;;;4.75;2.00;;;;;1.21;100.00;95669.16;4960649;28;102539;-73
2023/01/18 06:26:39;;;;;;;;;2.00;2.00;;;;;1.24;100.00;95672.22;4961651;28;103961;-73
2023/01/18 06:29:06;;;;;;;;;5.00;3.25;;;;;1.24;100.00;95674.06;4965206;28;102606;-73
2023/01/18 06:31:33;;;;;;;;;3.25;3.25;;;;;1.21;99.79;95671.84;4975939;28;105889;-73
2023/01/18 06:34:07;;;;;;;;;5.00;3.25;;;;;1.22;99.94;95676.91;4968860;28;102328;-73
2023/01/18 06:36:36;;;;;;;;;3.50;3.50;;;;;1.22;100.00;95678.75;4955240;28;103536;-72
2023/01/18 06:39:04;;;;;;;;;5.75;5.00;;;;;1.18;100.00;95669.56;4960265;28;102642;-72
2023/01/18 06:41:31;;;;;;;;;8.00;5.75;;;;;1.11;100.00;95674.13;4967261;28;102068;-72
2023/01/18 06:43:58;;;;;;;;;7.00;7.00;;;;;1.06;100.00;95663.31;4966658;28;102350;-72
2023/01/18 06:46:25;;;;;;;;;5.00;5.00;;;;;1.06;100.00;95672.13;4957542;28;104002;-72
2023/01/18 06:48:52;;;;;;;;;4.00;3.25;;;;;1.10;100.00;95670.66;4951929;28;102123;-72
2023/01/18 06:51:19;;;;;;;;;4.00;3.00;;;;;1.13;100.00;95675.53;4967352;28;102014;-72
2023/01/18 06:53:47;;;;;;;;;1.00;1.00;;;;;1.13;100.00;95672.06;4964621;28;102341;-73
2023/01/18 06:56:14;;;;;;;;;4.75;3.50;;;;;1.13;100.00;95672.88;4969323;28;110442;-73
2023/01/18 06:58:41;;;;;;;;;2.00;2.00;;;;;1.16;100.00;95679.63;4970920;28;102027;-73
2023/01/18 07:01:08;;;;;;;;;1.50;1.00;;;;;1.19;100.00;95684.53;4979485;28;102072;-72
2023/01/18 07:03:36;;;;;;;;;2.25;1.25;;;;;1.21;100.00;95679.81;4979697;28;102178;-73
2023/01/18 07:06:03;;;;;;;;;1.75;1.50;;;;;1.25;100.00;95681.00;4973101;28;104336;-73
2023/01/18 07:08:31;;;;;;;;;1.75;1.00;;;;;1.27;100.00;95693.06;4963325;28;102102;-72
2023/01/18 07:11:02;;;;;;;;;1.00;1.00;;;;;1.30;100.00;95694.50;4963414;28;101992;-73
2023/01/18 07:13:29;;;;;;;;;0.50;0.00;;;;;1.38;100.00;95696.88;4971578;28;102391;-72
2023/01/18 07:15:58;;;;;;;;;0.00;0.00;;;;;1.43;100.00;95696.25;4946334;28;104022;-72
2023/01/18 07:18:28;;;;;;;;;0.00;0.00;;;;;1.47;100.00;95697.44;4967925;28;102246;-72
2023/01/18 07:21:05;;;;;;;;;1.00;1.00;;;;;1.51;99.95;95706.63;4965655;28;103141;-73
2023/01/18 07:23:35;;;;;;;;;0.00;0.00;;;;;1.56;100.00;95704.13;4975035;28;102378;-73
2023/01/18 07:26:04;;;;;;;;;1.00;0.75;;;;;1.40;100.00;95670.06;4967013;28;104010;-73
2023/01/18 07:28:33;;;;;;;;;1.00;1.00;;;;;1.60;99.63;95700.84;4956928;28;102194;-73
2023/01/18 07:31:00;;;;;;;;;1.50;0.75;;;;;1.62;99.83;95709.41;4963130;28;102008;-73
2023/01/18 07:33:28;;;;;;;;;0.00;0.00;;;;;1.65;99.20;95713.50;4963601;28;102085;-72
2023/01/18 07:35:56;;;;;;;;;0.00;0.00;;;;;1.69;99.66;95712.84;4967349;28;103987;-73
2023/01/18 07:38:26;;;;;;;;;0.00;0.00;;;;;1.73;99.48;95716.72;4972233;28;103258;-73
2023/01/18 07:41:04;;;;;;;;;1.00;1.00;;;;;1.73;98.93;95705.22;4969823;28;102381;-73
2023/01/18 07:43:32;;;;;;;;;2.00;2.00;;;;;1.69;98.19;95693.38;4971677;28;102268;-72
2023/01/18 07:46:00;;;;;;;;;7.50;6.25;;;;;1.56;98.49;95690.81;4964517;28;103991;-73
2023/01/18 07:48:27;;;;;;;;;5.50;5.00;;;;;1.57;99.45;95690.63;4969306;28;102266;-72
2023/01/18 07:50:56;;;;;;;;;3.50;2.00;;;;;1.62;99.66;95693.44;4948849;28;102349;-72
2023/01/18 07:53:25;;;;;;;;;2.00;2.00;;;;;1.65;99.39;95701.00;4962509;28;102466;-72
2023/01/18 07:55:52;;;;;;;;;6.00;4.50;;;;;1.54;99.34;95683.03;4956079;28;104324;-72
2023/01/18 07:58:20;;;;;;;;;2.00;2.00;;;;;1.67;99.50;95693.59;4973896;28;102396;-72
2023/01/18 08:00:47;;;;;;;;;2.00;2.00;;;;;1.68;99.03;95689.91;4964733;28;101955;-73
2023/01/18 08:03:17;;;;;;;;;5.75;3.50;;;;;1.69;99.70;95699.53;4963307;28;102101;-72
2023/01/18 08:05:45;;;;;;;;;5.00;3.25;;;;;1.70;98.61;95701.16;4963376;28;108876;-72
2023/01/18 08:08:14;;;;;;;;;2.75;1.25;;;;;1.72;98.73;95706.25;4956655;28;102308;-73
2023/01/18 08:10:42;;;;;;;;;5.50;5.00;;;;;1.54;98.89;95695.53;4969413;28;102245;-73
2023/01/18 08:13:09;;;;;;;;;6.25;4.75;;;;;1.69;99.68;95715.50;4968302;28;102049;-73
2023/01/18 08:15:38;;;;;;;;;2.00;2.00;;;;;1.78;100.00;95724.06;4965264;27;104052;-72
2023/01/18 08:18:07;;;;;;;;;1.75;1.75;;;;;1.83;99.46;95713.56;4960750;28;102247;-73
2023/01/18 08:20:34;;;;;;;;;2.00;2.00;;;;;1.84;99.00;95709.06;4959299;28;103509;-72
2023/01/18 08:23:02;;;;;;;;;6.50;5.50;;;;;1.76;98.41;95694.97;4972698;28;102197;-73
2023/01/18 08:25:32;;;;;;;;;17.00;14.00;;;;;1.61;99.41;95688.34;4962199;27;104046;-73
2023/01/18 08:28:01;;;;;;;;;16.75;13.25;;;;;1.54;100.00;95685.72;4968246;28;102334;-73
2023/01/18 08:30:32;;;;;;;;;12.00;8.50;;;;;1.54;100.00;95690.22;4970599;27;102236;-73
2023/01/18 08:33:00;;;;;;;;;8.50;7.25;;;;;1.60;100.00;95700.84;4969840;28;102502;-73
2023/01/18 08:35:30;;;;;;;;;13.25;9.75;;;;;1.53;100.00;95715.22;4971462;28;104061;-73
2023/01/18 08:37:59;;;;;;;;;9.00;9.00;;;;;1.50;100.00;95718.31;4966077;28;102111;-72
2023/01/18 08:40:27;;;;;;;;;9.50;8.75;;;;;1.50;100.00;95716.47;4968724;28;102364;-72
2023/01/18 08:42:56;;;;;;;;;15.25;12.25;;;;;1.45;100.00;95718.94;4974310;28;102295;-72
2023/01/18 08:45:24;;;;;;;;;16.00;10.25;;;;;1.50;100.00;95724.44;4966064;28;104563;-72
2023/01/18 08:47:59;;;;;;;;;11.50;9.25;;;;;1.66;100.00;95753.25;4971525;28;102436;-73
2023/01/18 08:50:27;;;;;;;;;5.25;2.75;;;;;1.74;100.00;95744.97;4962959;28;102377;-73
2023/01/18 08:52:55;;;;;;;;;7.25;6.25;;;;;1.69;100.00;95750.13;4968955;28;102704;-72
2023/01/18 08:55:23;;;;;;;;;2.75;2.25;;;;;1.78;100.00;95754.16;4970636;28;104017;-72
2023/01/18 08:57:53;;;;;;;;;3.50;2.25;;;;;1.85;100.00;95762.09;4967722;28;102474;-72
2023/01/18 09:00:22;;;;;;;;;3.00;3.00;;;;;1.89;100.00;95762.50;4967504;28;102058;-72
2023/01/18 09:02:50;;;;;;;;;3.75;2.25;;;;;1.94;99.80;95757.31;4971603;28;103402;-72
2023/01/18 09:05:17;;;;;;;;;3.25;0.75;;;;;1.96;100.00;95747.28;4971429;28;103985;-73
2023/01/18 09:07:46;;;;;;;;;0.00;0.00;;;;;1.93;99.29;95743.19;4962625;28;102117;-72
2023/01/18 09:10:13;;;;;;;;;1.75;1.00;;;;;2.00;99.33;95756.47;4963922;28;101924;-73
2023/01/18 09:12:40;;;;;;;;;3.00;2.00;;;;;2.01;98.74;95763.41;4963366;28;102068;-73
2023/01/18 09:15:08;;;;;;;;;2.25;2.00;;;;;2.02;98.84;95757.06;4956053;28;104094;-73
2023/01/18 09:17:35;;;;;;;;;4.50;3.50;;;;;2.04;98.48;95754.97;4957151;28;102048;-72
2023/01/18 09:20:06;;;;;;;;;5.50;3.00;;;;;1.99;98.49;95739.66;4967113;28;102188;-73
2023/01/18 09:22:33;;;;;;;;;5.25;5.00;;;;;2.03;98.79;95740.03;4962950;28;102441;-72
2023/01/18 09:25:00;;;;;;;;;14.00;10.75;;;;;1.75;98.57;95719.97;4965354;28;104020;-73
2023/01/18 09:27:27;;;;;;;;;17.00;14.50;;;;;1.80;99.43;95754.75;4964780;28;102439;-73
2023/01/18 09:29:54;;;;;;;;;12.75;11.00;;;;;1.92;100.00;95767.38;4965354;28;102428;-72
2023/01/18 09:32:21;;;;;;;;;21.75;14.75;;;;;1.78;100.00;95770.16;4971139;28;102386;-73
2023/01/18 09:34:49;;;;;;;;;14.75;14.00;;;;;1.84;100.00;95765.00;4966808;28;110083;-73
2023/01/18 09:37:17;;;;;;;;;12.00;10.50;;;;;1.88;99.79;95760.88;4968610;28;102374;-73
2023/01/18 09:39:45;;;;;;;;;14.50;12.25;;;;;1.87;100.00;95770.69;4948624;28;102022;-73
2023/01/18 09:42:26;;;;;;;;;13.75;11.00;;;;;1.93;100.00;95761.03;4954064;28;102372;-73
2023/01/18 09:44:58;;;;;;;;;10.75;8.50;;;;;1.96;100.00;95769.41;4954020;28;108463;-72
2023/01/18 09:47:40;;;;;;;;;11.00;10.00;;;;;1.99;99.89;95758.31;4971428;28;102100;-72
2023/01/18 09:50:17;;;;;;;;;5.75;4.00;;;;;2.01;99.52;95766.91;4962428;28;104394;-73
2023/01/18 09:53:23;;;;;;;;;19.00;13.75;;;;;2.03;99.08;95772.81;4969431;27;102025;-73
2023/01/18 09:56:10;;;;;;;;;13.75;10.00;;;;;2.05;98.13;95793.94;4923320;28;108683;-73
2023/01/18 09:58:58;;;;;;;;;10.75;9.75;;;;;2.07;98.62;95797.22;4961424;28;102149;-73
2023/01/18 10:01:30;;;;;;;;;17.50;13.25;;;;;2.04;97.85;95800.28;4951377;28;102023;-73
2023/01/18 10:04:05;;;;;;;;;16.25;11.25;;;;;2.03;97.52;95804.78;4956859;28;102179;-72
2023/01/18 10:07:04;;;;;;;;;14.25;10.00;;;;;2.10;97.61;95812.75;4964236;28;104013;-73
2023/01/18 10:09:51;;;;;;;;;16.50;11.50;;;;;2.10;97.27;95829.56;4958593;28;103289;-73
2023/01/18 10:12:28;;;;;;;;;9.00;7.00;;;;;2.03;98.07;95828.78;4963659;28;102215;-73
2023/01/18 10:15:09;;;;;;;;;17.75;16.50;;;;;2.12;98.42;95843.47;4951463;28;102437;-73
2023/01/18 10:17:39;;;;;;;;;16.25;11.00;;;;;2.25;98.96;95851.38;4955616;28;103662;-73
2023/01/18 10:20:34;;;;;;;;;15.00;14.00;;;;;2.23;97.34;95858.78;4961777;28;102417;-73
2023/01/18 10:23:28;;;;;;;;;14.00;11.00;;;;;2.25;96.76;95854.03;4963802;28;102206;-73
2023/01/18 10:26:05;;;;;;;;;16.00;13.00;;;;;2.14;96.16;95856.59;4960198;28;102493;-73
2023/01/18 10:28:46;;;;;;;;;26.00;17.50;;;;;2.03;97.21;95862.59;4956216;28;103974;-73
2023/01/18 10:31:48;;;;;;;;;21.50;18.00;;;;;2.01;96.43;95862.84;4964514;28;102325;-73
2023/01/18 10:34:20;;;;;;;;;17.00;14.00;;;;;1.97;97.27;95860.81;4968361;28;102134;-73
2023/01/18 10:37:01;;;;;;;;;14.75;10.00;;;;;2.00;96.75;95871.03;4966397;28;102967;-73
2023/01/18 10:39:40;;;;;;;;;14.25;13.00;;;;;1.92;96.82;95880.09;4967594;28;108692;-72
2023/01/18 10:42:28;;;;;;;;;14.25;13.75;;;;;1.85;96.43;95873.19;4963613;28;102572;-74
2023/01/18 10:44:55;;;;;;;;;21.50;16.75;;;;;1.73;95.50;95876.50;4957673;28;102329;-73
2023/01/18 10:47:22;;;;;;;;;14.75;14.00;;;;;1.73;97.00;95876.50;4958383;28;102404;-72
2023/01/18 10:49:54;;;;;;;;;18.00;14.25;;;;;1.72;96.76;95884.69;4969737;28;108714;-75
2023/01/18 10:52:31;;;;;;;;;18.00;12.75;;;;;1.70;96.54;95890.25;4967002;28;102756;-73
2023/01/18 10:55:06;;;;;;;;;10.75;10.75;;;;;1.70;97.30;95892.09;4967885;28;102431;-73
2023/01/18 10:57:35;;;;;;;;;13.50;11.50;;;;;1.71;97.19;95893.75;4977159;28;102453;-74
2023/01/18 11:00:11;;;;;;;;;14.00;11.50;;;;;1.74;97.04;95914.63;4969596;28;102982;-73
2023/01/18 11:02:39;;;;;;;;;10.00;10.00;;;;;1.80;96.35;95909.25;4969555;28;102121;-74
2023/01/18 11:05:23;;;;;;;;;13.75;11.00;;;;;1.80;96.41;95909.25;4971460;28;101700;-74
2023/01/18 11:08:13;;;;;;;;;9.00;5.25;;;;;1.85;96.60;95899.84;4965360;28;103137;-74
2023/01/18 11:10:41;;;;;;;;;12.25;10.25;;;;;1.79;96.22;95896.97;4966624;28;108594;-74
2023/01/18 11:13:42;;;;;;;;;13.75;10.25;;;;;1.85;95.80;95905.16;4976795;27;102471;-74
2023/01/18 11:16:19;;;;;;;;;16.00;13.75;;;;;1.86;96.67;95901.44;4962883;28;102346;-74
2023/01/18 11:19:16;;;;;;;;;15.50;13.00;;;;;1.92;96.88;95916.59;4970009;27;102348;-74
2023/01/18 11:21:48;;;;;;;;;3.50;2.00;;;;;1.95;96.86;95910.81;4960564;28;108563;-74
2023/01/18 11:24:26;;;;;;;;;16.50;14.75;;;;;1.97;96.59;95908.78;4965258;28;102400;-74
2023/01/18 11:27:03;;;;;;;;;13.50;11.75;;;;;2.05;96.43;95927.16;4972169;28;102000;-74
2023/01/18 11:29:34;;;;;;;;;14.50;14.00;;;;;2.06;96.65;95932.28;4960811;28;102923;-73
2023/01/18 11:32:05;;;;;;;;;17.25;15.00;;;;;2.04;96.88;95923.69;4966442;27;104019;-73
2023/01/18 11:34:34;;;;;;;;;21.50;14.50;;;;;2.08;96.46;95929.41;4976268;28;102272;-74
2023/01/18 11:37:03;;;;;;;;;18.50;13.75;;;;;2.01;95.58;95936.63;4973460;28;102099;-73
2023/01/18 11:39:32;;;;;;;;;21.00;17.25;;;;;1.91;96.48;95944.25;4972149;28;102239;-73
2023/01/18 11:42:23;;;;;;;;;22.00;18.50;;;;;1.91;97.08;95936.25;4973806;28;103978;-74
2023/01/18 11:45:23;;;;;;;;;16.25;15.00;;;;;1.93;96.70;95939.53;4967832;28;103060;-74
2023/01/18 11:48:04;;;;;;;;;14.50;13.00;;;;;1.74;95.75;95910.13;4971865;27;102047;-74
2023/01/18 11:50:51;;;;;;;;;11.25;10.00;;;;;1.75;95.08;95910.94;4968838;28;102076;-74
2023/01/18 11:53:24;;;;;;;;;18.75;17.50;;;;;1.91;95.80;95952.25;4958291;28;104015;-75
2023/01/18 11:56:04;;;;;;;;;20.75;17.00;;;;;1.88;95.97;95958.00;4974209;28;101926;-74
2023/01/18 11:58:34;;;;;;;;;20.00;17.00;;;;;1.89;95.71;95968.44;4968460;27;102421;-74
2023/01/18 12:01:04;;;;;;;;;21.00;16.50;;;;;1.84;95.89;95964.78;4967572;28;102171;-74
2023/01/18 12:03:34;;;;;;;;;20.00;14.25;;;;;1.92;96.25;95972.53;4959543;28;104145;-74
2023/01/18 12:06:16;;;;;;;;;22.00;20.00;;;;;1.89;96.99;95978.28;4952438;28;102468;-74
2023/01/18 12:09:07;;;;;;;;;20.50;20.50;;;;;1.97;97.01;95984.19;4967259;28;102510;-74
2023/01/18 12:11:52;;;;;;;;;28.00;21.50;;;;;1.88;96.28;95976.66;4972453;27;102249;-74
2023/01/18 12:14:50;;;;;;;;;23.00;19.75;;;;;1.99;96.89;96003.44;4968000;27;103965;-73
2023/01/18 12:17:39;;;;;;;;;29.25;26.50;;;;;1.96;96.65;96014.53;4939168;28;103604;-73
2023/01/18 12:20:31;;;;;;;;;25.25;22.00;;;;;1.89;96.38;96023.59;4960086;28;102016;-73
2023/01/18 12:23:41;;;;;;;;;34.75;26.25;;;;;1.90;97.14;96027.88;4964349;28;102598;-73